sensor_id;sensor_type;location;lat;lon;timestamp;P1;durP1;ratioP1;P2;durP2;ratioP2
24867;SDS011;12941;48.698;9.310;2024-02-14T00:00:46;10.4;;;5.8;;
24867;SDS011;12941;48.698;9.310;2024-02-14T00:01:51;10.4;;;5.8;;
24867;SDS011;12941;48.698;9.310;2024-02-14T00:02:56;10.4;;;5.8;;
24867;SDS011;12941;48.698;9.310;2024-02-14T00:04:01;10.4;;;5.8;;
24867;SDS011;12941;48.698;9.310;2024-02-14T00:05:06;12.1;;;6.8;;
24867;SDS011;12941;48.698;9.310;2024-02-14T00:06:06;12.1;;;6.8;;
24867;SDS011;12941;48.698;9.310;2024-02-14T00:07:06;12.1;;;6.8;;
24867;SDS011;12941;48.698;9.310;2024-02-14T00:08:06;12.1;;;6.8;;
24867;SDS011;12941;48.698;9.310;2024-02-14T00:09:11;12.1;;;6.8;;
24867;SDS011;12941;48.698;9.310;2024-02-14T00:10:11;12.8;;;8.2;;
24867;SDS011;12941;48.698;9.310;2024-02-14T00:11:16;12.8;;;8.2;;
24867;SDS011;12941;48.698;9.310;2024-02-14T00:12:21;12.8;;;8.2;;
24867;SDS011;12941;48.698;9.310;2024-02-14T00:13:26;12.8;;;8.2;;
24867;SDS011;12941;48.698;9.310;2024-02-14T00:14:26;12.8;;;8.2;;
24867;SDS011;12941;48.698;9.310;2024-02-14T00:15:31;12.6;;;8.5;;
24867;SDS011;12941;48.698;9.310;2024-02-14T00:16:36;12.6;;;8.5;;
24867;SDS011;12941;48.698;9.310;2024-02-14T00:17:41;12.6;;;8.5;;
24867;SDS011;12941;48.698;9.310;2024-02-14T00:18:46;12.6;;;8.5;;
24867;SDS011;12941;48.698;9.310;2024-02-14T00:19:51;8.4;;;5.2;;
24867;SDS011;12941;48.698;9.310;2024-02-14T00:20:56;8.4;;;5.2;;
24867;SDS011;12941;48.698;9.310;2024-02-14T00:22:01;8.4;;;5.2;;
24867;SDS011;12941;48.698;9.310;2024-02-14T00:23:01;8.4;;;5.2;;
24867;SDS011;12941;48.698;9.310;2024-02-14T00:24:01;8.4;;;5.2;;
24867;SDS011;12941;48.698;9.310;2024-02-14T00:25:06;6.2;;;4.1;;
24867;SDS011;12941;48.698;9.310;2024-02-14T00:26:11;6.2;;;4.1;;
24867;SDS011;12941;48.698;9.310;2024-02-14T00:27:11;6.2;;;4.1;;
24867;SDS011;12941;48.698;9.310;2024-02-14T00:28:16;6.2;;;4.1;;
24867;SDS011;12941;48.698;9.310;2024-02-14T00:29:16;6.2;;;4.1;;
24867;SDS011;12941;48.698;9.310;2024-02-14T00:30:21;7.8;;;4.7;;
24867;SDS011;12941;48.698;9.310;2024-02-14T00:31:21;7.8;;;4.7;;
24867;SDS011;12941;48.698;9.310;2024-02-14T00:32:26;7.8;;;4.7;;
24867;SDS011;12941;48.698;9.310;2024-02-14T00:33:26;7.8;;;4.7;;
24867;SDS011;12941;48.698;9.310;2024-02-14T00:34:31;7.8;;;4.7;;
24867;SDS011;12941;48.698;9.310;2024-02-14T00:35:31;8.5;;;5.4;;
24867;SDS011;12941;48.698;9.310;2024-02-14T00:36:36;8.5;;;5.4;;
24867;SDS011;12941;48.698;9.310;2024-02-14T00:37:36;8.5;;;5.4;;
24867;SDS011;12941;48.698;9.310;2024-02-14T00:38:41;8.5;;;5.4;;
24867;SDS011;12941;48.698;9.310;2024-02-14T00:39:41;9.6;;;5.8;;
24867;SDS011;12941;48.698;9.310;2024-02-14T00:40:41;9.6;;;5.8;;
24867;SDS011;12941;48.698;9.310;2024-02-14T00:41:46;9.6;;;5.8;;
24867;SDS011;12941;48.698;9.310;2024-02-14T00:42:46;9.6;;;5.8;;
24867;SDS011;12941;48.698;9.310;2024-02-14T00:43:51;9.6;;;5.8;;
24867;SDS011;12941;48.698;9.310;2024-02-14T00:44:51;7.3;;;4.9;;
24867;SDS011;12941;48.698;9.310;2024-02-14T00:45:56;7.3;;;4.9;;
24867;SDS011;12941;48.698;9.310;2024-02-14T00:47:01;7.3;;;4.9;;
24867;SDS011;12941;48.698;9.310;2024-02-14T00:48:07;7.3;;;4.9;;
24867;SDS011;12941;48.698;9.310;2024-02-14T00:49:06;7.3;;;4.9;;
24867;SDS011;12941;48.698;9.310;2024-02-14T00:50:07;6.8;;;4.6;;
24867;SDS011;12941;48.698;9.310;2024-02-14T00:51:06;6.8;;;4.6;;
24867;SDS011;12941;48.698;9.310;2024-02-14T00:52:07;6.8;;;4.6;;
24867;SDS011;12941;48.698;9.310;2024-02-14T00:53:11;6.8;;;4.6;;
24867;SDS011;12941;48.698;9.310;2024-02-14T00:54:11;6.8;;;4.6;;
24867;SDS011;12941;48.698;9.310;2024-02-14T00:55:11;7.5;;;5.1;;
24867;SDS011;12941;48.698;9.310;2024-02-14T00:56:16;7.5;;;5.1;;
24867;SDS011;12941;48.698;9.310;2024-02-14T00:57:17;7.5;;;5.1;;
24867;SDS011;12941;48.698;9.310;2024-02-14T00:58:17;7.5;;;5.1;;
24867;SDS011;12941;48.698;9.310;2024-02-14T00:59:16;7.5;;;5.1;;
24867;SDS011;12941;48.698;9.310;2024-02-14T01:00:21;6.3;;;4.7;;
24867;SDS011;12941;48.698;9.310;2024-02-14T01:01:21;6.3;;;4.7;;
24867;SDS011;12941;48.698;9.310;2024-02-14T01:02:21;6.3;;;4.7;;
24867;SDS011;12941;48.698;9.310;2024-02-14T01:03:21;6.3;;;4.7;;
24867;SDS011;12941;48.698;9.310;2024-02-14T01:04:26;6.3;;;4.7;;
24867;SDS011;12941;48.698;9.310;2024-02-14T01:05:26;9.2;;;4.6;;
24867;SDS011;12941;48.698;9.310;2024-02-14T01:06:31;9.2;;;4.6;;
24867;SDS011;12941;48.698;9.310;2024-02-14T01:07:31;9.2;;;4.6;;
24867;SDS011;12941;48.698;9.310;2024-02-14T01:08:36;9.2;;;4.6;;
24867;SDS011;12941;48.698;9.310;2024-02-14T01:09:37;6.5;;;4.1;;
24867;SDS011;12941;48.698;9.310;2024-02-14T01:10:41;6.5;;;4.1;;
24867;SDS011;12941;48.698;9.310;2024-02-14T01:11:46;6.5;;;4.1;;
24867;SDS011;12941;48.698;9.310;2024-02-14T01:12:47;6.5;;;4.1;;
24867;SDS011;12941;48.698;9.310;2024-02-14T01:13:51;6.5;;;4.1;;
24867;SDS011;12941;48.698;9.310;2024-02-14T01:14:57;6.3;;;4.1;;
24867;SDS011;12941;48.698;9.310;2024-02-14T01:15:56;6.3;;;4.1;;
24867;SDS011;12941;48.698;9.310;2024-02-14T01:17:01;6.3;;;4.1;;
24867;SDS011;12941;48.698;9.310;2024-02-14T01:18:01;6.3;;;4.1;;
24867;SDS011;12941;48.698;9.310;2024-02-14T01:19:06;6.3;;;4.1;;
24867;SDS011;12941;48.698;9.310;2024-02-14T01:20:11;7.6;;;4.3;;
24867;SDS011;12941;48.698;9.310;2024-02-14T01:21:16;7.6;;;4.3;;
24867;SDS011;12941;48.698;9.310;2024-02-14T01:22:16;7.6;;;4.3;;
24867;SDS011;12941;48.698;9.310;2024-02-14T01:23:21;7.6;;;4.3;;
24867;SDS011;12941;48.698;9.310;2024-02-14T01:24:27;7.6;;;4.3;;
24867;SDS011;12941;48.698;9.310;2024-02-14T01:25:31;7.4;;;4.7;;
24867;SDS011;12941;48.698;9.310;2024-02-14T01:26:36;7.4;;;4.7;;
24867;SDS011;12941;48.698;9.310;2024-02-14T01:27:41;7.4;;;4.7;;
24867;SDS011;12941;48.698;9.310;2024-02-14T01:28:41;7.4;;;4.7;;
24867;SDS011;12941;48.698;9.310;2024-02-14T01:29:41;8.5;;;5.6;;
24867;SDS011;12941;48.698;9.310;2024-02-14T01:30:46;8.5;;;5.6;;
24867;SDS011;12941;48.698;9.310;2024-02-14T01:31:47;8.5;;;5.6;;
24867;SDS011;12941;48.698;9.310;2024-02-14T01:32:51;8.5;;;5.6;;
24867;SDS011;12941;48.698;9.310;2024-02-14T01:33:56;8.5;;;5.6;;
24867;SDS011;12941;48.698;9.310;2024-02-14T01:34:57;6.6;;;4.8;;
24867;SDS011;12941;48.698;9.310;2024-02-14T01:36:01;6.6;;;4.8;;
24867;SDS011;12941;48.698;9.310;2024-02-14T01:37:01;6.6;;;4.8;;
24867;SDS011;12941;48.698;9.310;2024-02-14T01:38:07;6.6;;;4.8;;
24867;SDS011;12941;48.698;9.310;2024-02-14T01:39:11;6.6;;;4.8;;
24867;SDS011;12941;48.698;9.310;2024-02-14T01:40:17;5.4;;;4.3;;
24867;SDS011;12941;48.698;9.310;2024-02-14T01:41:21;5.4;;;4.3;;
24867;SDS011;12941;48.698;9.310;2024-02-14T01:42:21;5.4;;;4.3;;
24867;SDS011;12941;48.698;9.310;2024-02-14T01:43:22;5.4;;;4.3;;
24867;SDS011;12941;48.698;9.310;2024-02-14T01:44:27;5.4;;;4.3;;
24867;SDS011;12941;48.698;9.310;2024-02-14T01:45:27;7;;;4.6;;
24867;SDS011;12941;48.698;9.310;2024-02-14T01:46:27;7;;;4.6;;
24867;SDS011;12941;48.698;9.310;2024-02-14T01:47:26;7;;;4.6;;
24867;SDS011;12941;48.698;9.310;2024-02-14T01:48:31;7;;;4.6;;
24867;SDS011;12941;48.698;9.310;2024-02-14T01:49:37;6;;;4.2;;
24867;SDS011;12941;48.698;9.310;2024-02-14T01:50:41;6;;;4.2;;
24867;SDS011;12941;48.698;9.310;2024-02-14T01:51:42;6;;;4.2;;
24867;SDS011;12941;48.698;9.310;2024-02-14T01:52:47;6;;;4.2;;
24867;SDS011;12941;48.698;9.310;2024-02-14T01:53:47;6;;;4.2;;
24867;SDS011;12941;48.698;9.310;2024-02-14T01:54:51;6.6;;;4.5;;
24867;SDS011;12941;48.698;9.310;2024-02-14T01:55:52;6.6;;;4.5;;
24867;SDS011;12941;48.698;9.310;2024-02-14T01:56:57;6.6;;;4.5;;
24867;SDS011;12941;48.698;9.310;2024-02-14T01:58:01;6.6;;;4.5;;
24867;SDS011;12941;48.698;9.310;2024-02-14T01:59:01;6.6;;;4.5;;
24867;SDS011;12941;48.698;9.310;2024-02-14T02:00:02;8.5;;;4.9;;
24867;SDS011;12941;48.698;9.310;2024-02-14T02:01:01;8.5;;;4.9;;
24867;SDS011;12941;48.698;9.310;2024-02-14T02:02:07;8.5;;;4.9;;
24867;SDS011;12941;48.698;9.310;2024-02-14T02:03:12;8.5;;;4.9;;
24867;SDS011;12941;48.698;9.310;2024-02-14T02:04:17;8.5;;;4.9;;
24867;SDS011;12941;48.698;9.310;2024-02-14T02:05:21;8.2;;;4.1;;
24867;SDS011;12941;48.698;9.310;2024-02-14T02:06:27;8.2;;;4.1;;
24867;SDS011;12941;48.698;9.310;2024-02-14T02:07:27;8.2;;;4.1;;
24867;SDS011;12941;48.698;9.310;2024-02-14T02:08:32;8.2;;;4.1;;
24867;SDS011;12941;48.698;9.310;2024-02-14T02:09:37;5.7;;;3.8;;
24867;SDS011;12941;48.698;9.310;2024-02-14T02:10:42;5.6;;;3.8;;
24867;SDS011;12941;48.698;9.310;2024-02-14T02:11:42;5.6;;;3.8;;
24867;SDS011;12941;48.698;9.310;2024-02-14T02:12:47;5.6;;;3.8;;
24867;SDS011;12941;48.698;9.310;2024-02-14T02:13:52;5.6;;;3.8;;
24867;SDS011;12941;48.698;9.310;2024-02-14T02:14:57;7.2;;;4.2;;
24867;SDS011;12941;48.698;9.310;2024-02-14T02:16:02;7.2;;;4.2;;
24867;SDS011;12941;48.698;9.310;2024-02-14T02:17:07;7.2;;;4.2;;
24867;SDS011;12941;48.698;9.310;2024-02-14T02:18:12;7.2;;;4.2;;
24867;SDS011;12941;48.698;9.310;2024-02-14T02:19:12;7.2;;;4.2;;
24867;SDS011;12941;48.698;9.310;2024-02-14T02:20:12;5.6;;;4.2;;
24867;SDS011;12941;48.698;9.310;2024-02-14T02:21:17;5.6;;;4.2;;
24867;SDS011;12941;48.698;9.310;2024-02-14T02:22:22;5.6;;;4.2;;
24867;SDS011;12941;48.698;9.310;2024-02-14T02:23:22;5.6;;;4.2;;
24867;SDS011;12941;48.698;9.310;2024-02-14T02:24:27;5.6;;;4.2;;
24867;SDS011;12941;48.698;9.310;2024-02-14T02:25:32;6.3;;;3.8;;
24867;SDS011;12941;48.698;9.310;2024-02-14T02:26:37;6.3;;;3.8;;
24867;SDS011;12941;48.698;9.310;2024-02-14T02:27:37;6.3;;;3.8;;
24867;SDS011;12941;48.698;9.310;2024-02-14T02:28:42;6.3;;;3.8;;
24867;SDS011;12941;48.698;9.310;2024-02-14T02:29:42;6.2;;;3.8;;
24867;SDS011;12941;48.698;9.310;2024-02-14T02:30:47;6.2;;;3.8;;
24867;SDS011;12941;48.698;9.310;2024-02-14T02:31:52;6.2;;;3.8;;
24867;SDS011;12941;48.698;9.310;2024-02-14T02:32:52;6.2;;;3.8;;
24867;SDS011;12941;48.698;9.310;2024-02-14T02:33:52;6.2;;;3.8;;
24867;SDS011;12941;48.698;9.310;2024-02-14T02:34:57;5.7;;;4.3;;
24867;SDS011;12941;48.698;9.310;2024-02-14T02:36:02;5.7;;;4.3;;
24867;SDS011;12941;48.698;9.310;2024-02-14T02:37:02;5.7;;;4.3;;
24867;SDS011;12941;48.698;9.310;2024-02-14T02:38:02;5.7;;;4.3;;
24867;SDS011;12941;48.698;9.310;2024-02-14T02:39:07;5.7;;;4.3;;
24867;SDS011;12941;48.698;9.310;2024-02-14T02:40:07;5.8;;;4.5;;
24867;SDS011;12941;48.698;9.310;2024-02-14T02:41:07;5.8;;;4.5;;
24867;SDS011;12941;48.698;9.310;2024-02-14T02:42:12;5.8;;;4.5;;
24867;SDS011;12941;48.698;9.310;2024-02-14T02:43:12;5.8;;;4.5;;
24867;SDS011;12941;48.698;9.310;2024-02-14T02:44:12;5.8;;;4.5;;
24867;SDS011;12941;48.698;9.310;2024-02-14T02:45:12;5.8;;;4.8;;
24867;SDS011;12941;48.698;9.310;2024-02-14T02:46:17;5.8;;;4.8;;
24867;SDS011;12941;48.698;9.310;2024-02-14T02:47:22;5.8;;;4.8;;
24867;SDS011;12941;48.698;9.310;2024-02-14T02:48:22;5.8;;;4.8;;
24867;SDS011;12941;48.698;9.310;2024-02-14T02:49:27;5.8;;;4.8;;
24867;SDS011;12941;48.698;9.310;2024-02-14T02:50:27;5.8;;;4.1;;
24867;SDS011;12941;48.698;9.310;2024-02-14T02:51:32;5.8;;;4.1;;
24867;SDS011;12941;48.698;9.310;2024-02-14T02:52:32;5.8;;;4.1;;
24867;SDS011;12941;48.698;9.310;2024-02-14T02:53:32;5.8;;;4.1;;
24867;SDS011;12941;48.698;9.310;2024-02-14T02:54:32;5.8;;;4.1;;
24867;SDS011;12941;48.698;9.310;2024-02-14T02:55:37;6.6;;;4.8;;
24867;SDS011;12941;48.698;9.310;2024-02-14T02:56:37;6.6;;;4.8;;
24867;SDS011;12941;48.698;9.310;2024-02-14T02:57:42;6.6;;;4.8;;
24867;SDS011;12941;48.698;9.310;2024-02-14T02:58:47;6.6;;;4.8;;
24867;SDS011;12941;48.698;9.310;2024-02-14T02:59:52;5.8;;;4.2;;
24867;SDS011;12941;48.698;9.310;2024-02-14T03:00:52;5.8;;;4.2;;
24867;SDS011;12941;48.698;9.310;2024-02-14T03:01:52;5.8;;;4.2;;
24867;SDS011;12941;48.698;9.310;2024-02-14T03:02:57;5.8;;;4.2;;
24867;SDS011;12941;48.698;9.310;2024-02-14T03:03:57;5.8;;;4.2;;
24867;SDS011;12941;48.698;9.310;2024-02-14T03:05:02;8.3;;;4.7;;
24867;SDS011;12941;48.698;9.310;2024-02-14T03:06:03;8.3;;;4.7;;
24867;SDS011;12941;48.698;9.310;2024-02-14T03:07:07;8.3;;;4.7;;
24867;SDS011;12941;48.698;9.310;2024-02-14T03:08:12;8.3;;;4.7;;
24867;SDS011;12941;48.698;9.310;2024-02-14T03:09:17;8.3;;;4.7;;
24867;SDS011;12941;48.698;9.310;2024-02-14T03:10:22;7.3;;;4.6;;
24867;SDS011;12941;48.698;9.310;2024-02-14T03:11:22;7.3;;;4.6;;
24867;SDS011;12941;48.698;9.310;2024-02-14T03:12:27;7.3;;;4.6;;
24867;SDS011;12941;48.698;9.310;2024-02-14T03:13:27;7.3;;;4.6;;
24867;SDS011;12941;48.698;9.310;2024-02-14T03:14:32;7.3;;;4.6;;
24867;SDS011;12941;48.698;9.310;2024-02-14T03:15:32;6.9;;;4.4;;
24867;SDS011;12941;48.698;9.310;2024-02-14T03:16:32;6.9;;;4.4;;
24867;SDS011;12941;48.698;9.310;2024-02-14T03:17:37;6.9;;;4.4;;
24867;SDS011;12941;48.698;9.310;2024-02-14T03:18:42;6.9;;;4.4;;
24867;SDS011;12941;48.698;9.310;2024-02-14T03:19:47;8.4;;;5.2;;
24867;SDS011;12941;48.698;9.310;2024-02-14T03:20:52;8.4;;;5.2;;
24867;SDS011;12941;48.698;9.310;2024-02-14T03:21:52;8.4;;;5.2;;
24867;SDS011;12941;48.698;9.310;2024-02-14T03:22:57;8.4;;;5.2;;
24867;SDS011;12941;48.698;9.310;2024-02-14T03:23:57;8.4;;;5.2;;
24867;SDS011;12941;48.698;9.310;2024-02-14T03:25:02;7.2;;;4.6;;
24867;SDS011;12941;48.698;9.310;2024-02-14T03:26:07;7.2;;;4.6;;
24867;SDS011;12941;48.698;9.310;2024-02-14T03:27:12;7.2;;;4.6;;
24867;SDS011;12941;48.698;9.310;2024-02-14T03:28:17;7.2;;;4.6;;
24867;SDS011;12941;48.698;9.310;2024-02-14T03:29:22;7.2;;;4.6;;
24867;SDS011;12941;48.698;9.310;2024-02-14T03:30:22;7.6;;;4.9;;
24867;SDS011;12941;48.698;9.310;2024-02-14T03:31:27;7.6;;;4.9;;
24867;SDS011;12941;48.698;9.310;2024-02-14T03:32:27;7.6;;;4.9;;
24867;SDS011;12941;48.698;9.310;2024-02-14T03:33:32;7.6;;;4.9;;
24867;SDS011;12941;48.698;9.310;2024-02-14T03:34:32;7.6;;;4.9;;
24867;SDS011;12941;48.698;9.310;2024-02-14T03:35:37;6.9;;;4.8;;
24867;SDS011;12941;48.698;9.310;2024-02-14T03:36:37;6.9;;;4.8;;
24867;SDS011;12941;48.698;9.310;2024-02-14T03:37:42;6.9;;;4.8;;
24867;SDS011;12941;48.698;9.310;2024-02-14T03:38:42;6.9;;;4.8;;
24867;SDS011;12941;48.698;9.310;2024-02-14T03:39:47;6.7;;;4.6;;
24867;SDS011;12941;48.698;9.310;2024-02-14T03:40:52;6.7;;;4.6;;
24867;SDS011;12941;48.698;9.310;2024-02-14T03:41:52;6.7;;;4.6;;
24867;SDS011;12941;48.698;9.310;2024-02-14T03:42:57;6.7;;;4.6;;
24867;SDS011;12941;48.698;9.310;2024-02-14T03:44:02;6.7;;;4.6;;
24867;SDS011;12941;48.698;9.310;2024-02-14T03:45:07;6.7;;;4.9;;
24867;SDS011;12941;48.698;9.310;2024-02-14T03:46:12;6.7;;;4.9;;
24867;SDS011;12941;48.698;9.310;2024-02-14T03:47:12;6.7;;;4.9;;
24867;SDS011;12941;48.698;9.310;2024-02-14T03:48:12;6.7;;;4.9;;
24867;SDS011;12941;48.698;9.310;2024-02-14T03:49:17;6.7;;;4.9;;
24867;SDS011;12941;48.698;9.310;2024-02-14T03:50:17;6.1;;;4.8;;
24867;SDS011;12941;48.698;9.310;2024-02-14T03:51:17;6.1;;;4.8;;
24867;SDS011;12941;48.698;9.310;2024-02-14T03:52:17;6.1;;;4.8;;
24867;SDS011;12941;48.698;9.310;2024-02-14T03:53:22;6.1;;;4.8;;
24867;SDS011;12941;48.698;9.310;2024-02-14T03:54:27;6.1;;;4.8;;
24867;SDS011;12941;48.698;9.310;2024-02-14T03:55:27;7;;;4.7;;
24867;SDS011;12941;48.698;9.310;2024-02-14T03:56:27;7;;;4.7;;
24867;SDS011;12941;48.698;9.310;2024-02-14T03:57:27;7;;;4.7;;
24867;SDS011;12941;48.698;9.310;2024-02-14T03:58:32;7;;;4.7;;
24867;SDS011;12941;48.698;9.310;2024-02-14T03:59:35;7;;;4.7;;
24867;SDS011;12941;48.698;9.310;2024-02-14T04:00:37;6.1;;;4.8;;
24867;SDS011;12941;48.698;9.310;2024-02-14T04:01:43;6.1;;;4.8;;
24867;SDS011;12941;48.698;9.310;2024-02-14T04:02:42;6.1;;;4.8;;
24867;SDS011;12941;48.698;9.310;2024-02-14T04:03:42;6.1;;;4.8;;
24867;SDS011;12941;48.698;9.310;2024-02-14T04:04:42;6;;;4.6;;
24867;SDS011;12941;48.698;9.310;2024-02-14T04:05:42;6;;;4.6;;
24867;SDS011;12941;48.698;9.310;2024-02-14T04:06:47;6;;;4.6;;
24867;SDS011;12941;48.698;9.310;2024-02-14T04:07:52;6;;;4.6;;
24867;SDS011;12941;48.698;9.310;2024-02-14T04:08:52;6;;;4.6;;
24867;SDS011;12941;48.698;9.310;2024-02-14T04:09:57;6.4;;;4.7;;
24867;SDS011;12941;48.698;9.310;2024-02-14T04:11:02;6.4;;;4.7;;
24867;SDS011;12941;48.698;9.310;2024-02-14T04:12:07;6.4;;;4.7;;
24867;SDS011;12941;48.698;9.310;2024-02-14T04:13:13;6.4;;;4.7;;
24867;SDS011;12941;48.698;9.310;2024-02-14T04:14:13;6.4;;;4.7;;
24867;SDS011;12941;48.698;9.310;2024-02-14T04:15:17;7.1;;;4.7;;
24867;SDS011;12941;48.698;9.310;2024-02-14T04:16:23;7.1;;;4.7;;
24867;SDS011;12941;48.698;9.310;2024-02-14T04:17:27;7.1;;;4.7;;
24867;SDS011;12941;48.698;9.310;2024-02-14T04:18:27;7.1;;;4.7;;
24867;SDS011;12941;48.698;9.310;2024-02-14T04:19:33;7.1;;;4.7;;
24867;SDS011;12941;48.698;9.310;2024-02-14T04:20:37;7;;;5.3;;
24867;SDS011;12941;48.698;9.310;2024-02-14T04:21:37;7;;;5.3;;
24867;SDS011;12941;48.698;9.310;2024-02-14T04:22:43;7;;;5.3;;
24867;SDS011;12941;48.698;9.310;2024-02-14T04:23:43;7;;;5.3;;
24867;SDS011;12941;48.698;9.310;2024-02-14T04:24:47;6.8;;;5;;
24867;SDS011;12941;48.698;9.310;2024-02-14T04:25:54;6.8;;;5;;
24867;SDS011;12941;48.698;9.310;2024-02-14T04:26:57;6.8;;;5;;
24867;SDS011;12941;48.698;9.310;2024-02-14T04:27:57;6.8;;;5;;
24867;SDS011;12941;48.698;9.310;2024-02-14T04:28:58;6.8;;;5;;
24867;SDS011;12941;48.698;9.310;2024-02-14T04:30:03;7.5;;;4.9;;
24867;SDS011;12941;48.698;9.310;2024-02-14T04:31:08;7.5;;;4.9;;
24867;SDS011;12941;48.698;9.310;2024-02-14T04:32:13;7.5;;;4.9;;
24867;SDS011;12941;48.698;9.310;2024-02-14T04:33:13;7.5;;;4.9;;
24867;SDS011;12941;48.698;9.310;2024-02-14T04:34:17;7.5;;;4.9;;
24867;SDS011;12941;48.698;9.310;2024-02-14T04:35:19;7.4;;;5;;
24867;SDS011;12941;48.698;9.310;2024-02-14T04:36:23;7.4;;;5;;
24867;SDS011;12941;48.698;9.310;2024-02-14T04:37:23;7.4;;;5;;
24867;SDS011;12941;48.698;9.310;2024-02-14T04:38:28;7.4;;;5;;
24867;SDS011;12941;48.698;9.310;2024-02-14T04:39:28;7.4;;;5;;
24867;SDS011;12941;48.698;9.310;2024-02-14T04:40:28;7;;;4.9;;
24867;SDS011;12941;48.698;9.310;2024-02-14T04:41:33;7;;;4.9;;
24867;SDS011;12941;48.698;9.310;2024-02-14T04:42:33;7;;;4.9;;
24867;SDS011;12941;48.698;9.310;2024-02-14T04:43:33;7;;;4.9;;
24867;SDS011;12941;48.698;9.310;2024-02-14T04:44:33;7;;;4.9;;
24867;SDS011;12941;48.698;9.310;2024-02-14T04:45:38;6.9;;;5.9;;
24867;SDS011;12941;48.698;9.310;2024-02-14T04:46:38;6.9;;;5.9;;
24867;SDS011;12941;48.698;9.310;2024-02-14T04:47:43;6.9;;;5.9;;
24867;SDS011;12941;48.698;9.310;2024-02-14T04:48:48;6.9;;;5.9;;
24867;SDS011;12941;48.698;9.310;2024-02-14T04:49:48;9.9;;;6.7;;
24867;SDS011;12941;48.698;9.310;2024-02-14T04:50:54;9.9;;;6.7;;
24867;SDS011;12941;48.698;9.310;2024-02-14T04:51:54;9.9;;;6.7;;
24867;SDS011;12941;48.698;9.310;2024-02-14T04:52:58;9.9;;;6.7;;
24867;SDS011;12941;48.698;9.310;2024-02-14T04:53:58;9.9;;;6.7;;
24867;SDS011;12941;48.698;9.310;2024-02-14T04:54:58;8.2;;;5.5;;
24867;SDS011;12941;48.698;9.310;2024-02-14T04:55:58;8.2;;;5.5;;
24867;SDS011;12941;48.698;9.310;2024-02-14T04:56:58;8.2;;;5.5;;
24867;SDS011;12941;48.698;9.310;2024-02-14T04:57:58;8.2;;;5.5;;
24867;SDS011;12941;48.698;9.310;2024-02-14T04:58:58;8.2;;;5.5;;
24867;SDS011;12941;48.698;9.310;2024-02-14T05:00:03;7.9;;;4.9;;
24867;SDS011;12941;48.698;9.310;2024-02-14T05:01:03;7.9;;;4.9;;
24867;SDS011;12941;48.698;9.310;2024-02-14T05:02:08;7.9;;;4.9;;
24867;SDS011;12941;48.698;9.310;2024-02-14T05:03:08;7.9;;;4.9;;
24867;SDS011;12941;48.698;9.310;2024-02-14T05:04:08;7.9;;;4.9;;
24867;SDS011;12941;48.698;9.310;2024-02-14T05:05:09;5.7;;;4.9;;
24867;SDS011;12941;48.698;9.310;2024-02-14T05:06:09;5.7;;;4.9;;
24867;SDS011;12941;48.698;9.310;2024-02-14T05:07:09;5.7;;;4.9;;
24867;SDS011;12941;48.698;9.310;2024-02-14T05:08:09;5.7;;;4.9;;
24867;SDS011;12941;48.698;9.310;2024-02-14T05:09:09;5.7;;;4.9;;
24867;SDS011;12941;48.698;9.310;2024-02-14T05:10:09;6.5;;;5.2;;
24867;SDS011;12941;48.698;9.310;2024-02-14T05:11:14;6.5;;;5.2;;
24867;SDS011;12941;48.698;9.310;2024-02-14T05:12:19;6.5;;;5.2;;
24867;SDS011;12941;48.698;9.310;2024-02-14T05:13:24;6.5;;;5.2;;
24867;SDS011;12941;48.698;9.310;2024-02-14T05:14:25;6.5;;;5.2;;
24867;SDS011;12941;48.698;9.310;2024-02-14T05:15:29;7.8;;;4.9;;
24867;SDS011;12941;48.698;9.310;2024-02-14T05:16:34;7.8;;;4.9;;
24867;SDS011;12941;48.698;9.310;2024-02-14T05:17:41;7.8;;;4.9;;
24867;SDS011;12941;48.698;9.310;2024-02-14T05:18:44;7.8;;;4.9;;
24867;SDS011;12941;48.698;9.310;2024-02-14T05:19:44;5.9;;;4.8;;
24867;SDS011;12941;48.698;9.310;2024-02-14T05:20:49;5.9;;;4.8;;
24867;SDS011;12941;48.698;9.310;2024-02-14T05:21:54;5.9;;;4.8;;
24867;SDS011;12941;48.698;9.310;2024-02-14T05:22:59;5.9;;;4.8;;
24867;SDS011;12941;48.698;9.310;2024-02-14T05:23:59;5.9;;;4.8;;
24867;SDS011;12941;48.698;9.310;2024-02-14T05:25:04;8.5;;;4.8;;
24867;SDS011;12941;48.698;9.310;2024-02-14T05:26:09;8.5;;;4.8;;
24867;SDS011;12941;48.698;9.310;2024-02-14T05:27:14;8.5;;;4.8;;
24867;SDS011;12941;48.698;9.310;2024-02-14T05:28:19;8.5;;;4.8;;
24867;SDS011;12941;48.698;9.310;2024-02-14T05:29:19;8.5;;;4.8;;
24867;SDS011;12941;48.698;9.310;2024-02-14T05:30:19;7.2;;;5.5;;
24867;SDS011;12941;48.698;9.310;2024-02-14T05:31:19;7.2;;;5.5;;
24867;SDS011;12941;48.698;9.310;2024-02-14T05:32:24;7.2;;;5.5;;
24867;SDS011;12941;48.698;9.310;2024-02-14T05:33:24;7.2;;;5.5;;
24867;SDS011;12941;48.698;9.310;2024-02-14T05:34:29;7.2;;;5.5;;
24867;SDS011;12941;48.698;9.310;2024-02-14T05:35:34;9.4;;;5;;
24867;SDS011;12941;48.698;9.310;2024-02-14T05:36:39;9.4;;;5;;
24867;SDS011;12941;48.698;9.310;2024-02-14T05:37:44;9.4;;;5;;
24867;SDS011;12941;48.698;9.310;2024-02-14T05:38:49;9.4;;;5;;
24867;SDS011;12941;48.698;9.310;2024-02-14T05:39:54;8.5;;;5.2;;
24867;SDS011;12941;48.698;9.310;2024-02-14T05:41:00;8.5;;;5.2;;
24867;SDS011;12941;48.698;9.310;2024-02-14T05:42:04;8.5;;;5.2;;
24867;SDS011;12941;48.698;9.310;2024-02-14T05:43:04;8.5;;;5.2;;
24867;SDS011;12941;48.698;9.310;2024-02-14T05:44:05;8.5;;;5.2;;
24867;SDS011;12941;48.698;9.310;2024-02-14T05:45:09;7.3;;;5.1;;
24867;SDS011;12941;48.698;9.310;2024-02-14T05:46:09;7.3;;;5.1;;
24867;SDS011;12941;48.698;9.310;2024-02-14T05:47:14;7.3;;;5.1;;
24867;SDS011;12941;48.698;9.310;2024-02-14T05:48:14;7.3;;;5.1;;
24867;SDS011;12941;48.698;9.310;2024-02-14T05:49:14;7.3;;;5.1;;
24867;SDS011;12941;48.698;9.310;2024-02-14T05:50:14;7.4;;;5.6;;
24867;SDS011;12941;48.698;9.310;2024-02-14T05:51:14;7.4;;;5.6;;
24867;SDS011;12941;48.698;9.310;2024-02-14T05:52:19;7.4;;;5.6;;
24867;SDS011;12941;48.698;9.310;2024-02-14T05:53:24;7.4;;;5.6;;
24867;SDS011;12941;48.698;9.310;2024-02-14T05:54:29;7.4;;;5.6;;
24867;SDS011;12941;48.698;9.310;2024-02-14T05:55:29;9;;;5.2;;
24867;SDS011;12941;48.698;9.310;2024-02-14T05:56:34;9;;;5.2;;
24867;SDS011;12941;48.698;9.310;2024-02-14T05:57:34;9;;;5.2;;
24867;SDS011;12941;48.698;9.310;2024-02-14T05:58:39;9;;;5.2;;
24867;SDS011;12941;48.698;9.310;2024-02-14T05:59:39;5.6;;;4.6;;
24867;SDS011;12941;48.698;9.310;2024-02-14T06:00:44;5.6;;;4.6;;
24867;SDS011;12941;48.698;9.310;2024-02-14T06:01:44;5.6;;;4.6;;
24867;SDS011;12941;48.698;9.310;2024-02-14T06:02:49;5.6;;;4.6;;
24867;SDS011;12941;48.698;9.310;2024-02-14T06:03:49;5.6;;;4.6;;
24867;SDS011;12941;48.698;9.310;2024-02-14T06:04:54;6.7;;;4.4;;
24867;SDS011;12941;48.698;9.310;2024-02-14T06:05:54;6.7;;;4.4;;
24867;SDS011;12941;48.698;9.310;2024-02-14T06:06:54;6.7;;;4.4;;
24867;SDS011;12941;48.698;9.310;2024-02-14T06:07:59;6.7;;;4.4;;
24867;SDS011;12941;48.698;9.310;2024-02-14T06:09:04;6.7;;;4.4;;
24867;SDS011;12941;48.698;9.310;2024-02-14T06:10:09;6.7;;;5;;
24867;SDS011;12941;48.698;9.310;2024-02-14T06:11:09;6.7;;;5;;
24867;SDS011;12941;48.698;9.310;2024-02-14T06:12:14;6.7;;;5;;
24867;SDS011;12941;48.698;9.310;2024-02-14T06:13:15;6.7;;;5;;
24867;SDS011;12941;48.698;9.310;2024-02-14T06:14:19;6.7;;;5;;
24867;SDS011;12941;48.698;9.310;2024-02-14T06:15:19;7.1;;;4.8;;
24867;SDS011;12941;48.698;9.310;2024-02-14T06:16:24;7.1;;;4.8;;
24867;SDS011;12941;48.698;9.310;2024-02-14T06:17:25;7.1;;;4.8;;
24867;SDS011;12941;48.698;9.310;2024-02-14T06:18:29;7.1;;;4.8;;
24867;SDS011;12941;48.698;9.310;2024-02-14T06:19:29;7.1;;;4.8;;
24867;SDS011;12941;48.698;9.310;2024-02-14T06:20:29;8.1;;;5.1;;
24867;SDS011;12941;48.698;9.310;2024-02-14T06:21:34;8.1;;;5.1;;
24867;SDS011;12941;48.698;9.310;2024-02-14T06:22:35;8.1;;;5.1;;
24867;SDS011;12941;48.698;9.310;2024-02-14T06:23:35;8.1;;;5.1;;
24867;SDS011;12941;48.698;9.310;2024-02-14T06:24:39;8.2;;;5.4;;
24867;SDS011;12941;48.698;9.310;2024-02-14T06:25:45;8.2;;;5.4;;
24867;SDS011;12941;48.698;9.310;2024-02-14T06:26:45;8.2;;;5.4;;
24867;SDS011;12941;48.698;9.310;2024-02-14T06:27:49;8.2;;;5.4;;
24867;SDS011;12941;48.698;9.310;2024-02-14T06:28:50;8.2;;;5.4;;
24867;SDS011;12941;48.698;9.310;2024-02-14T06:29:55;6.2;;;5.3;;
24867;SDS011;12941;48.698;9.310;2024-02-14T06:30:55;6.2;;;5.3;;
24867;SDS011;12941;48.698;9.310;2024-02-14T06:31:55;6.2;;;5.3;;